Portada
METAR-TAF:

METAR-TAF

Aeropuertos :

Aeropuerto Zenata

Tremecén, Argelia

latitud: 35-01N, longitud: 001-28W, altitud: 247 m

Observación

El informe se hizo hace 27 minutos, a las 08:00 UTC
Viento 2 kt del norte
Temperatura 25°C
Humedad 74%
Presión 1015 hPa
Visibilidad 10 km o más
sin nubes por debajo de 1500 m y sin presencia de cumulonimbus.

METAR: DAON 140800Z 36002KT CAVOK 25/20 Q1015

Hora: 09:27 (08:27 UTC)

Pronóstico

El informe se hizo hace 3 horas y 27 minutos, a las 05:00 UTC
Pronóstico válido del 14 a las 06 UTC al 15 a las 06 UTC
Viento 2 kt con dirección variable
Visibilidad 10 km o más
Nubes dispersas a una altura de 2600 ft
Evolucionando progresivamente
del 14 a las 12 UTC al 14 a las 15 UTC
Viento 10 kt del norte-noroeste

TAF: DAON 140500Z 1406/1506 VRB02KT 9999 SCT026 BECMG 1412/1415 34010KT

Observaciones y pronósticos meteorológicos de más de 4000 aeropuertos (mensajes METAR y TAF).

Los puntos amarillos y rojos representan las estaciones disponibles.

Ponga el ratón en el punto deseado para ver el nombre de la estación.

Haga clic para ver las observaciones y los pronósticos meteorológicos.

Para cambiar el mapa : haga clic en los botones verdes con una cruz de color negro para hacer un zoom, en el botón verde con un guión para alejar o en las flechas verdes para mapas adyacentes.


METAR-TAF: